עמוד ראשי
METAR-TAF:

METAR-TAF

שדות תעופה :

פארו, פורטוגל

קו רוחב: 37-01N, קו אורך: 007-58W, גובה: 7מטר

תצפית מזג אוויר נוכחית

הדו"ח נערך לפני 17דקות, בשעה 18:30 UTC
רוח 7קשר מכיוון מערב
טמפרטורת 28 צלסיוס
לחות 55%
לחץ 1016 hPa
ראות 10 קילומטר או יותר
ללא עננים שבסיסם נמוך מ 5000 רגל או קומולונימבוס

METAR: LPFR 231830Z 26007KT CAVOK 28/18 Q1016

זמן: 19:47 (18:47 UTC)

תחזית

הדו"ח נערך לפני 1 שעות ו 47דקות, בשעה 17:00 UTC
תחזית בתוקף מ 23 ב 18 UTC עד 24 ב 18 UTC
רוח 7קשר מכיוון מערב
ראות 10 קילומטר או יותר
ללא עננים שבסיסם נמוך מ 5000 רגל או קומולונימבוס
יעשה מ
23 ב 22 UTC עד 23 ב 24 UTC
רוח 2קשר עם כיוונים משתנים
יעשה מ
24 ב 07 UTC עד 24 ב 09 UTC
רוח 7קשר מכיוון מזרח/דרום-מזרח
יעשה מ
24 ב 10 UTC עד 24 ב 12 UTC
רוח 7קשר מכיוון דרום
יעשה מ
24 ב 13 UTC עד 24 ב 15 UTC
רוח 8קשר מכיוון מערב/דרום-מערב

TAF: LPFR 231700Z 2318/2418 26007KT CAVOK BECMG 2322/2324 VRB02KT BECMG 2407/2409 12007KT BECMG 2410/2412 19007KT BECMG 2413/2415 24008KT

תצפיות ותחזיות מזג אוויר לגבי יותר מ- 4,000 שדות תעופה ברחבי העולם. דוחות METAR ו- TAF.

התחנות הזמינות מסומנות בנקודות צהובות ואדומות על גבי המפה.

העבר את העכבר לנקודה הצבעונית על מנת לראות את שם התחנה.

לאחר מכן, לחץ כדי לראות את תוכן ואת תחזיות מזג האוויר.

כדי לשנות את המפה: לחץ על הכפתורים הירוקים עם הפלוס השחור כדי להתקרב; על הכפתור הירוק עם המקף כדי להתרחק; או בחיצים הירוקים למפות סמוכות.


METAR-TAF: